createdAt,value
2023-01-28T00:04:40.107Z,9.55
2023-01-28T00:09:41.443Z,9.07
2023-01-28T00:14:42.861Z,8.63
2023-01-28T00:19:44.785Z,9.60
2023-01-28T00:24:46.193Z,7.05
2023-01-28T00:29:48.446Z,7.55
2023-01-28T00:34:50.064Z,8.02
2023-01-28T00:39:51.421Z,8.43
2023-01-28T00:44:52.733Z,7.93
2023-01-28T00:49:54.214Z,7.57
2023-01-28T00:54:56.680Z,10.20
2023-01-28T00:59:58.015Z,7.80
2023-01-28T01:04:59.508Z,7.85
2023-01-28T01:10:06.802Z,6.38
2023-01-28T01:15:10.274Z,6.82
2023-01-28T01:20:13.353Z,8.18
2023-01-28T01:25:16.013Z,7.07
2023-01-28T01:30:17.620Z,7.63
2023-01-28T01:35:18.963Z,7.82
2023-01-28T01:40:20.310Z,7.57
2023-01-28T01:45:21.790Z,10.27
2023-01-28T01:50:23.110Z,10.77
2023-01-28T01:55:25.509Z,14.90
2023-01-28T02:00:26.883Z,11.13
2023-01-28T02:05:28.246Z,11.02
2023-01-28T02:10:30.621Z,12.48
2023-01-28T02:15:31.967Z,11.38
2023-01-28T02:20:52.087Z,11.32
2023-01-28T02:26:12.622Z,12.15
2023-01-28T02:31:32.700Z,13.15
2023-01-28T02:36:40.050Z,12.00
2023-01-28T02:47:03.363Z,10.70
2023-01-28T02:52:12.204Z,13.25
2023-01-28T02:57:26.921Z,10.13
2023-01-28T03:02:31.068Z,10.98
2023-01-28T03:07:33.676Z,10.95
2023-01-28T03:12:55.584Z,10.77
2023-01-28T03:18:30.820Z,8.45
2023-01-28T03:24:03.881Z,12.52
2023-01-28T03:29:28.746Z,7.85
2023-01-28T03:34:49.324Z,7.15
2023-01-28T03:39:50.882Z,7.35
2023-01-28T03:44:53.249Z,8.25
2023-01-28T03:49:56.406Z,9.02
2023-01-28T03:54:58.147Z,6.95
2023-01-28T04:00:00.884Z,7.28
2023-01-28T04:05:07.034Z,10.35
2023-01-28T04:10:10.494Z,7.53
2023-01-28T04:15:24.314Z,8.23
2023-01-28T04:20:25.857Z,9.18
2023-01-28T04:25:27.512Z,8.63
2023-01-28T04:30:29.073Z,9.43
2023-01-28T04:35:50.715Z,9.73
2023-01-28T04:41:12.302Z,9.68
2023-01-28T04:46:13.964Z,8.60
2023-01-28T04:51:30.070Z,10.18
2023-01-28T04:56:52.383Z,10.38
2023-01-28T05:01:53.924Z,11.18
2023-01-28T05:06:56.169Z,12.52
2023-01-28T05:12:01.802Z,9.27
2023-01-28T05:17:05.299Z,9.77
2023-01-28T05:22:07.296Z,10.57
2023-01-28T05:32:17.815Z,9.50
2023-01-28T05:37:19.698Z,10.20
2023-01-28T05:42:22.521Z,11.20
2023-01-28T05:47:27.396Z,10.25
2023-01-28T05:52:40.084Z,10.50
2023-01-28T05:57:47.854Z,8.38
2023-01-28T06:02:53.201Z,9.68
2023-01-28T06:07:55.313Z,9.93
2023-01-28T06:12:56.777Z,8.77
2023-01-28T06:18:14.558Z,10.50
2023-01-28T06:23:15.954Z,11.73
2023-01-28T06:28:17.410Z,14.73
2023-01-28T06:33:19.097Z,12.98
2023-01-28T06:38:20.454Z,14.00
2023-01-28T06:43:29.565Z,12.82
2023-01-28T06:48:30.899Z,13.27
2023-01-28T06:53:32.251Z,15.88
2023-01-28T06:58:33.671Z,14.45
2023-01-28T07:03:36.122Z,14.88
2023-01-28T07:08:37.871Z,16.30
2023-01-28T07:13:39.266Z,14.85
2023-01-28T07:18:40.590Z,17.20
2023-01-28T07:23:42.035Z,22.77
2023-01-28T07:28:43.423Z,20.67
2023-01-28T07:33:45.045Z,20.52
2023-01-28T07:38:46.352Z,17.30
2023-01-28T07:43:47.897Z,21.30
2023-01-28T07:48:49.203Z,21.27
2023-01-28T07:53:50.559Z,21.80
2023-01-28T07:58:51.900Z,19.38
2023-01-28T08:03:53.275Z,20.73
2023-01-28T08:08:55.148Z,22.25
2023-01-28T08:13:56.483Z,19.20
2023-01-28T08:18:58.068Z,18.70
2023-01-28T08:23:59.504Z,13.93
2023-01-28T08:29:00.868Z,18.40
2023-01-28T08:34:02.491Z,16.70
2023-01-28T08:39:03.951Z,16.33
2023-01-28T08:44:05.319Z,15.40
2023-01-28T08:49:06.696Z,15.73
2023-01-28T08:54:08.107Z,19.42
2023-01-28T08:59:09.472Z,18.60
2023-01-28T09:04:10.974Z,20.08
2023-01-28T09:09:12.283Z,19.70
2023-01-28T09:14:13.655Z,22.08
2023-01-28T09:19:15.808Z,18.77
2023-01-28T09:24:18.764Z,18.45
2023-01-28T09:29:20.195Z,20.65
2023-01-28T09:34:21.531Z,17.40
2023-01-28T09:39:22.891Z,18.10
2023-01-28T09:44:34.857Z,15.85
2023-01-28T09:49:48.199Z,16.92
2023-01-28T09:54:50.792Z,22.98
2023-01-28T09:59:52.144Z,17.45
2023-01-28T10:04:53.432Z,19.50
2023-01-28T10:09:58.034Z,16.20
2023-01-28T10:15:11.554Z,19.20
2023-01-28T10:20:13.298Z,15.80
2023-01-28T10:25:19.325Z,19.10
2023-01-28T10:30:22.264Z,18.25
2023-01-28T10:35:24.072Z,16.30
2023-01-28T10:40:26.161Z,15.52
2023-01-28T10:45:31.022Z,19.67
2023-01-28T10:50:32.379Z,17.17
2023-01-28T10:55:45.593Z,19.27
2023-01-28T11:00:52.066Z,20.38
2023-01-28T11:05:54.340Z,19.13
2023-01-28T11:10:56.619Z,17.27
2023-01-28T11:16:05.086Z,18.77
2023-01-28T11:21:08.132Z,18.53
2023-01-28T11:26:15.803Z,18.58
2023-01-28T11:31:17.977Z,18.75
2023-01-28T11:36:20.597Z,16.27
2023-01-28T11:41:30.154Z,26.42
2023-01-28T11:46:43.581Z,14.88
2023-01-28T11:51:45.449Z,16.55
2023-01-28T11:57:06.537Z,14.73
2023-01-28T12:02:13.790Z,16.85
2023-01-28T12:07:15.145Z,13.73
2023-01-28T12:12:16.476Z,17.80
2023-01-28T12:17:32.254Z,18.20
2023-01-28T12:22:40.298Z,19.15
2023-01-28T12:27:42.294Z,17.85
2023-01-28T12:33:05.428Z,16.85
2023-01-28T12:38:06.759Z,15.93
2023-01-28T12:43:23.344Z,18.17
2023-01-28T12:48:32.562Z,19.58
2023-01-28T12:53:52.611Z,21.33
2023-01-28T12:59:12.252Z,19.30
2023-01-28T13:09:19.719Z,21.88
2023-01-28T13:14:23.758Z,20.92
2023-01-28T13:19:35.784Z,22.27
2023-01-28T13:24:37.129Z,20.02
2023-01-28T13:29:38.432Z,24.65
2023-01-28T13:34:44.004Z,18.48
2023-01-28T13:39:50.100Z,22.70
2023-01-28T13:44:51.909Z,23.90
2023-01-28T13:50:07.249Z,20.63
2023-01-28T13:55:11.561Z,22.70
2023-01-28T14:00:13.227Z,20.85
2023-01-28T14:05:28.822Z,24.23
2023-01-28T14:10:34.565Z,20.88
2023-01-28T14:15:36.022Z,23.98
2023-01-28T14:20:40.903Z,22.35
2023-01-28T14:25:48.064Z,21.20
2023-01-28T14:31:00.558Z,22.58
2023-01-28T14:36:02.651Z,21.83
2023-01-28T14:41:04.509Z,20.83
2023-01-28T14:46:05.979Z,23.77
2023-01-28T14:51:25.948Z,25.65
2023-01-28T14:56:35.467Z,19.50
2023-01-28T15:01:43.419Z,28.25
2023-01-28T15:06:45.040Z,25.42
2023-01-28T15:11:47.640Z,23.55
2023-01-28T15:16:49.626Z,24.52
2023-01-28T15:21:54.584Z,22.02
2023-01-28T15:26:56.057Z,23.17
2023-01-28T15:31:57.775Z,27.00
2023-01-28T15:36:59.974Z,27.35
2023-01-28T15:42:03.156Z,27.30
2023-01-28T15:47:13.916Z,21.40
2023-01-28T15:52:15.431Z,21.67
2023-01-28T15:57:27.279Z,23.58
2023-01-28T16:02:31.491Z,22.80
2023-01-28T16:07:33.160Z,21.95
2023-01-28T16:12:34.512Z,28.30
2023-01-28T16:17:39.740Z,27.83
2023-01-28T16:22:43.279Z,24.33
2023-01-28T16:27:44.595Z,25.40
2023-01-28T16:32:46.437Z,25.90
2023-01-28T16:37:48.675Z,22.98
2023-01-28T16:42:53.305Z,26.48
2023-01-28T16:47:54.700Z,29.77
2023-01-28T16:52:56.181Z,24.73
2023-01-28T16:57:57.617Z,24.98
2023-01-28T17:02:59.087Z,25.60
2023-01-28T17:08:00.415Z,22.27
2023-01-28T17:13:01.888Z,25.83
2023-01-28T17:18:03.341Z,31.83
2023-01-28T17:23:06.940Z,30.27
2023-01-28T17:28:09.028Z,34.60
2023-01-28T17:33:10.403Z,26.55
2023-01-28T17:38:11.868Z,27.92
2023-01-28T17:43:13.436Z,28.85
2023-01-28T17:48:14.762Z,36.35
2023-01-28T17:53:16.159Z,32.55
2023-01-28T17:58:17.525Z,29.55
2023-01-28T18:03:18.876Z,30.95
2023-01-28T18:08:20.203Z,30.83
2023-01-28T18:13:21.788Z,34.72
2023-01-28T18:18:23.099Z,32.13
2023-01-28T18:23:24.492Z,37.75
2023-01-28T18:28:25.882Z,36.35
2023-01-28T18:33:27.229Z,35.60
2023-01-28T18:38:28.549Z,38.25
2023-01-28T18:43:32.522Z,34.80
2023-01-28T18:48:33.850Z,34.00
2023-01-28T18:53:35.272Z,34.85
2023-01-28T18:58:36.682Z,36.63
2023-01-28T19:03:38.295Z,30.05
2023-01-28T19:08:39.653Z,32.72
2023-01-28T19:13:42.961Z,41.97
2023-01-28T19:18:44.848Z,50.55
2023-01-28T19:23:50.104Z,44.83
2023-01-28T19:28:51.799Z,51.55
2023-01-28T19:33:57.228Z,40.75
2023-01-28T19:38:59.413Z,36.40
2023-01-28T19:44:00.990Z,45.95
2023-01-28T19:49:03.776Z,40.42
2023-01-28T19:54:05.281Z,44.80
2023-01-28T19:59:06.711Z,33.70
2023-01-28T20:04:08.108Z,38.20
2023-01-28T20:09:16.836Z,38.10
2023-01-28T20:14:19.534Z,30.88
2023-01-28T20:19:20.936Z,34.20
2023-01-28T20:24:22.344Z,34.67
2023-01-28T20:29:23.740Z,32.75
2023-01-28T20:34:25.085Z,36.05
2023-01-28T20:39:26.384Z,40.10
2023-01-28T20:44:31.843Z,43.35
2023-01-28T20:49:33.185Z,47.10
2023-01-28T20:54:34.637Z,53.60
2023-01-28T20:59:36.921Z,71.47
2023-01-28T21:04:38.353Z,55.00
2023-01-28T21:09:39.767Z,44.22
2023-01-28T21:14:41.088Z,43.90
2023-01-28T21:19:42.567Z,33.90
2023-01-28T21:24:45.403Z,37.47
2023-01-28T21:29:46.757Z,44.85
2023-01-28T21:34:48.135Z,55.53
2023-01-28T21:39:50.163Z,56.50
2023-01-28T21:44:51.556Z,45.35
2023-01-28T21:49:52.869Z,44.88
2023-01-28T21:54:54.260Z,35.20
2023-01-28T21:59:55.710Z,45.05
2023-01-28T22:04:57.027Z,41.42
2023-01-28T22:09:58.346Z,35.25
2023-01-28T22:15:00.018Z,39.97
2023-01-28T22:20:01.348Z,35.15
2023-01-28T22:25:02.687Z,39.13
2023-01-28T22:30:04.295Z,35.38
2023-01-28T22:35:05.768Z,33.40
2023-01-28T22:40:07.396Z,42.28
2023-01-28T22:45:09.516Z,34.42
2023-01-28T22:50:11.011Z,31.38
2023-01-28T22:55:12.459Z,32.25
2023-01-28T23:00:15.545Z,30.80
2023-01-28T23:05:20.868Z,31.25
2023-01-28T23:10:22.252Z,41.05
2023-01-28T23:15:42.412Z,39.47
2023-01-28T23:21:02.500Z,39.42
2023-01-28T23:26:05.704Z,33.58
2023-01-28T23:31:08.453Z,29.50
2023-01-28T23:36:09.820Z,34.80
2023-01-28T23:41:11.132Z,29.73
2023-01-28T23:46:12.577Z,32.15
2023-01-28T23:51:13.998Z,30.70
2023-01-28T23:56:15.303Z,31.40
